Glacier Park International Airport
KGPI : now visible

Airfield :











YOU CAN JOIN US ON...

 
LOGIN :

Register | Disclaimer

   EN    FR    IT 

 









Legend :    VFR   Marginal VFR   IFR   Intensive IFR   Very Intensive IFR
Visi :
Ceiling :
>= 8 km
>= 3000ft
5 to 8 km
1000 to 3000 ft
1500m to 5 km
500 to 1000 ft
800 to 1500m
200 to 500 ft
< 800m
< 200 ft
Symbols :   Thunderstorms  Fog  Heavy snow  Heavy precipitations  Wind > 20 kt






- Airport Elevation : 2977 ft
- IATA code : FCA


KGPI - Glacier Park International

CURRENT METAR :
  • 221416Z AUTO 00000KT 10SM SCT002 M10/M11 A3041 RMK AO2 VIS 3/4 NE T11001111 $

EXPIRED METARs :
  • 221355Z AUTO 00000KT 10SM CLR M09/M11 A3040 RMK AO2 VIS 3/4 NE SLP332 I1000 T10891106 $
  • 221311Z AUTO 00000KT 10SM SCT001 M09/M11 A3040 RMK AO2 VIS 1/2 NE T10941111 $
  • 221255Z AUTO 00000KT 8SM BKN001 M08/M09 A3039 RMK AO2 VIS 1/4 NE SLP330 I1000 T10831089 $
  • 221252Z AUTO 00000KT 2SM BR OVC001 M09/M09 A3040 RMK AO2 VIS 1/2 NE I1000 $
  • 221241Z AUTO 27004KT 1 1/4SM BR OVC001 M08/M09 A3040 RMK AO2 VIS 1/4V5 I1000 T10781089 $
  • 221206Z AUTO 12003KT 10SM BKN001 M08/M09 A3039 RMK AO2 T10831094
  • 221155Z AUTO 00000KT 10SM SCT001 SCT046 M08/M09 A3039 RMK AO2 SLP328 I1000 I6000 T10781089 11006 21083 56001

TAF KGPI
Valid from the 22 at 13:00 until the 23 at 12:00 UTC


221244Z 2213/2312 25003KT 1SM BR VCFG OVC001
FM221900 27004KT P6SM OVC050
FM230700 10006KT 6SM BR OVC001
KZLC FIR / North America



MET'MAP, your aeronautical weather chart ! - Copyright ORBIFLY December 2007 - Disclaimer

ORBIFLY MET'MAP TEAM :

Programming & Development : Alexandra Zaïnal
Concept & original design : Baudouin d'Aumeries
Assistance for programming : Marc-Olivier Méhu
Technical & hardware support : Manuel Goepfert

Contact : metmap@orbifly.com




SOURCES & CREDITS :

   NOAA       Earth
Advisory